Time;durP1;ratioP1;P1;durP2;ratioP2;P2;SDS_P1;SDS_P2;PMS_P1;PMS_P2;Temp;Humidity;BMP_temperature;BMP_pressure;BME280_temperature;BME280_humidity;BME280_pressure;Samples;Min_cycle;Max_cycle;Signal;HPM_P1;HPM_P2
2022/12/24 05:01:05;;;;;;;47.38;7.43;;;8.20;99.90;;;;;;6147489;23;20028;-83
2022/12/24 05:03:31;;;;;;;42.88;6.85;;;8.20;99.90;;;;;;6187242;23;20450;-83
2022/12/24 05:06:01;;;;;;;44.10;6.72;;;8.20;99.90;;;;;;6160891;23;20101;-83
2022/12/24 05:08:27;;;;;;;43.40;6.55;;;8.20;99.90;;;;;;6135738;23;20051;-82
2022/12/24 05:10:57;;;;;;;50.38;6.28;;;8.30;99.90;;;;;;6187229;23;20017;-83
2022/12/24 05:13:23;;;;;;;49.30;6.72;;;8.30;99.90;;;;;;6137100;23;20016;-83
2022/12/24 05:15:49;;;;;;;48.03;6.00;;;8.30;99.90;;;;;;6161107;23;20044;-82
2022/12/24 05:18:15;;;;;;;42.75;5.28;;;8.30;99.90;;;;;;6187423;23;20446;-83
2022/12/24 05:20:41;;;;;;;46.20;5.47;;;8.30;99.90;;;;;;6162452;23;20023;-83
2022/12/24 05:28:42;;;;;;;53.33;6.97;;;8.30;99.90;;;;;;6188751;23;20021;-83
2022/12/24 05:31:07;;;;;;;46.25;5.60;;;8.30;99.90;;;;;;6187720;23;20013;-82
2022/12/24 05:33:33;;;;;;;37.53;5.35;;;8.30;99.90;;;;;;6160766;23;20075;-83
2022/12/24 05:35:59;;;;;;;36.72;4.90;;;8.30;99.90;;;;;;6162432;23;20419;-84
2022/12/24 05:38:25;;;;;;;46.13;5.35;;;8.20;99.90;;;;;;6160575;23;20017;-84
2022/12/24 05:40:50;;;;;;;46.17;6.63;;;8.30;99.90;;;;;;6160477;23;20061;-82
2022/12/24 05:43:16;;;;;;;50.90;5.28;;;8.30;99.90;;;;;;6187531;23;20013;-83
2022/12/24 05:45:41;;;;;;;55.60;6.25;;;8.30;99.90;;;;;;6187916;23;20005;-82
2022/12/24 05:48:07;;;;;;;37.47;4.85;;;8.20;99.90;;;;;;6160108;23;20021;-84
2022/12/24 05:50:35;;;;;;;50.35;6.25;;;8.30;99.90;;;;;;6160947;23;20442;-83
2022/12/24 05:53:00;;;;;;;56.38;6.57;;;8.30;99.90;;;;;;6161071;23;20019;-85
2022/12/24 05:55:26;;;;;;;53.97;6.40;;;8.30;99.90;;;;;;6160811;23;20005;-82
2022/12/24 05:57:52;;;;;;;47.83;5.47;;;8.30;99.90;;;;;;6160922;23;20021;-83
2022/12/24 06:00:18;;;;;;;61.45;8.25;;;8.30;99.90;;;;;;6160757;23;20044;-85
2022/12/24 06:02:43;;;;;;;44.83;5.57;;;8.30;99.90;;;;;;6161162;23;20516;-84
2022/12/24 06:05:09;;;;;;;49.03;6.35;;;8.30;99.90;;;;;;6137980;23;20064;-84
2022/12/24 06:07:35;;;;;;;54.03;6.47;;;8.30;99.90;;;;;;6189025;23;20143;-83
2022/12/24 06:10:00;;;;;;;46.53;6.43;;;8.40;99.90;;;;;;6189121;23;20389;-84
2022/12/24 06:12:26;;;;;;;65.32;7.80;;;8.30;99.90;;;;;;6187746;23;20085;-82
2022/12/24 06:14:52;;;;;;;50.63;7.38;;;8.30;99.90;;;;;;6162862;23;20054;-81
2022/12/24 06:17:17;;;;;;;54.13;8.05;;;8.30;99.90;;;;;;6162053;23;20097;-82
2022/12/24 06:19:43;;;;;;;51.20;6.28;;;8.40;99.90;;;;;;6188015;23;20481;-83
2022/12/24 06:22:09;;;;;;;57.05;6.05;;;8.30;99.90;;;;;;6163149;23;20076;-84
2022/12/24 06:24:34;;;;;;;47.75;6.97;;;8.40;99.90;;;;;;6188839;23;20312;-83
2022/12/24 06:27:00;;;;;;;56.65;7.57;;;8.40;99.90;;;;;;6162236;23;20084;-84
2022/12/24 06:29:25;;;;;;;52.42;7.38;;;8.40;99.90;;;;;;6188329;23;20080;-83
2022/12/24 06:31:51;;;;;;;53.95;6.47;;;8.40;99.90;;;;;;6161410;23;20009;-84
2022/12/24 06:34:17;;;;;;;45.78;6.40;;;8.40;99.90;;;;;;6161742;23;20394;-85
2022/12/24 06:36:42;;;;;;;54.28;6.95;;;8.40;99.90;;;;;;6161163;23;20016;-84
2022/12/24 06:39:08;;;;;;;54.10;7.38;;;8.50;99.90;;;;;;6161463;23;20043;-83
2022/12/24 06:41:33;;;;;;;57.00;7.88;;;8.50;99.90;;;;;;6162191;23;20009;-83
2022/12/24 06:43:59;;;;;;;46.28;5.93;;;8.50;99.90;;;;;;6162454;23;20009;-85
2022/12/24 06:46:25;;;;;;;50.03;7.25;;;8.50;99.90;;;;;;6162108;23;20031;-85
2022/12/24 06:48:50;;;;;;;52.85;6.35;;;8.50;99.90;;;;;;6162724;23;20018;-84
2022/12/24 06:51:18;;;;;;;42.97;5.78;;;8.50;99.90;;;;;;6188633;23;20013;-84
2022/12/24 06:53:44;;;;;;;49.67;6.78;;;8.50;99.90;;;;;;6162080;23;20017;-82
2022/12/24 06:56:12;;;;;;;36.72;5.70;;;8.50;99.90;;;;;;6162470;23;20059;-84
2022/12/24 06:58:38;;;;;;;56.70;6.95;;;8.50;99.90;;;;;;6188036;23;20497;-83
2022/12/24 07:01:06;;;;;;;49.75;6.00;;;8.50;99.90;;;;;;6188382;23;20017;-83
2022/12/24 07:03:32;;;;;;;54.40;6.20;;;8.50;99.90;;;;;;6161968;23;20009;-83
2022/12/24 07:05:58;;;;;;;51.30;6.43;;;8.50;99.90;;;;;;6189112;23;20016;-84
2022/12/24 07:08:24;;;;;;;49.15;6.00;;;8.50;99.90;;;;;;6137133;23;20343;-83
2022/12/24 07:10:51;;;;;;;49.65;7.00;;;8.50;99.90;;;;;;6161865;23;20021;-82
2022/12/24 07:13:17;;;;;;;53.30;5.03;;;8.50;99.90;;;;;;6188256;23;20005;-82
2022/12/24 07:15:44;;;;;;;42.30;5.57;;;8.50;99.90;;;;;;6161742;23;20071;-84
2022/12/24 07:18:10;;;;;;;61.90;8.93;;;8.40;99.90;;;;;;6188330;23;20020;-85
2022/12/24 07:20:37;;;;;;;51.60;6.25;;;8.40;99.90;;;;;;6161614;23;20443;-83
2022/12/24 07:23:03;;;;;;;47.95;6.22;;;8.40;99.90;;;;;;6161438;23;20446;-83
2022/12/24 07:25:29;;;;;;;49.20;6.00;;;8.30;99.90;;;;;;6188196;23;20017;-83
2022/12/24 07:27:54;;;;;;;47.83;5.38;;;8.40;99.90;;;;;;6189198;23;20076;-82
2022/12/24 07:30:20;;;;;;;52.28;6.72;;;8.40;99.90;;;;;;6160951;23;20071;-82
2022/12/24 07:32:46;;;;;;;51.80;6.05;;;8.40;99.90;;;;;;6187215;23;20016;-84
2022/12/24 07:35:11;;;;;;;51.47;5.18;;;8.40;99.90;;;;;;6136447;23;20343;-83
2022/12/24 07:37:37;;;;;;;64.05;7.97;;;8.40;99.90;;;;;;6187463;23;20012;-83
2022/12/24 07:40:06;;;;;;;38.65;4.82;;;8.40;99.90;;;;;;6187013;23;20013;-82
2022/12/24 07:42:32;;;;;;;50.35;5.70;;;8.40;99.90;;;;;;6160797;23;20087;-82
2022/12/24 07:44:58;;;;;;;49.05;5.63;;;8.40;99.90;;;;;;6187759;23;20036;-84
2022/12/24 07:47:24;;;;;;;42.35;5.93;;;8.50;99.90;;;;;;6188091;23;20374;-83
2022/12/24 07:49:50;;;;;;;52.35;5.93;;;8.40;99.90;;;;;;6161363;23;20036;-84
2022/12/24 07:52:15;;;;;;;51.70;5.45;;;8.50;99.90;;;;;;6161655;23;20024;-84
2022/12/24 07:54:41;;;;;;;48.60;6.53;;;8.40;99.90;;;;;;6188251;23;20017;-84
2022/12/24 07:57:07;;;;;;;50.03;6.63;;;8.40;99.90;;;;;;6188402;23;20009;-83
2022/12/24 07:59:33;;;;;;;44.15;5.78;;;8.40;99.90;;;;;;6161397;23;20489;-83
2022/12/24 08:01:58;;;;;;;44.90;4.88;;;8.40;99.90;;;;;;6166019;23;20024;-83
2022/12/24 08:04:25;;;;;;;54.22;7.57;;;8.40;99.90;;;;;;6168574;23;20009;-83
2022/12/24 08:06:59;;;;;;;46.95;7.65;;;8.40;99.90;;;;;;6177140;23;20036;-83
2022/12/24 08:09:25;;;;;;;49.65;8.88;;;8.40;99.90;;;;;;6186270;23;20044;-83
2022/12/24 08:11:50;;;;;;;46.70;6.03;;;8.50;99.90;;;;;;6198722;23;20009;-82
2022/12/24 08:14:16;;;;;;;54.45;6.43;;;8.50;99.90;;;;;;6165603;23;20052;-82
2022/12/24 08:16:41;;;;;;;42.58;5.80;;;8.50;99.90;;;;;;6163776;23;20012;-83
2022/12/24 08:19:07;;;;;;;54.55;7.20;;;8.60;99.90;;;;;;6162187;23;20021;-82
2022/12/24 08:21:32;;;;;;;40.25;6.00;;;8.60;99.90;;;;;;6161483;23;20362;-85
2022/12/24 08:23:58;;;;;;;46.97;7.03;;;8.60;99.90;;;;;;6188041;23;20013;-82
2022/12/24 08:26:24;;;;;;;55.33;6.07;;;8.60;99.90;;;;;;6136690;23;20072;-85
2022/12/24 08:28:49;;;;;;;44.15;6.15;;;8.70;99.90;;;;;;6161664;23;20021;-83
2022/12/24 08:31:15;;;;;;;48.85;5.70;;;8.70;99.90;;;;;;6188063;23;20044;-83
2022/12/24 08:33:41;;;;;;;57.30;6.80;;;8.70;99.90;;;;;;6161106;23;20013;-84
2022/12/24 08:36:07;;;;;;;50.58;6.78;;;8.80;99.90;;;;;;6187337;23;20016;-82
2022/12/24 08:38:32;;;;;;;51.15;6.82;;;8.80;99.90;;;;;;6161664;23;20017;-84
2022/12/24 08:40:58;;;;;;;59.63;8.13;;;8.80;99.90;;;;;;6161842;23;20088;-82
2022/12/24 08:43:25;;;;;;;56.42;6.32;;;8.90;99.90;;;;;;6188229;23;20072;-83
2022/12/24 08:45:51;;;;;;;62.90;6.65;;;8.90;99.90;;;;;;6162129;23;20009;-84
2022/12/24 08:48:17;;;;;;;53.97;8.23;;;8.90;99.90;;;;;;6188242;23;20051;-84
2022/12/24 08:50:43;;;;;;;57.30;7.72;;;8.90;99.90;;;;;;6161452;23;20021;-82
2022/12/24 08:53:09;;;;;;;47.83;6.72;;;8.90;99.90;;;;;;6188147;23;20017;-84
2022/12/24 08:55:35;;;;;;;54.25;6.60;;;8.90;99.90;;;;;;6188192;23;20016;-83
2022/12/24 08:58:01;;;;;;;51.42;7.57;;;8.90;99.90;;;;;;6187668;23;20382;-83
2022/12/24 09:00:26;;;;;;;38.67;5.90;;;8.90;99.90;;;;;;6187816;23;20009;-82
2022/12/24 09:02:52;;;;;;;47.45;6.55;;;8.90;99.90;;;;;;6161072;23;20091;-82
2022/12/24 09:05:18;;;;;;;44.70;5.25;;;8.90;99.90;;;;;;6135920;23;20015;-83
2022/12/24 09:07:44;;;;;;;56.88;7.97;;;8.80;99.90;;;;;;6187954;23;20040;-83
2022/12/24 09:10:10;;;;;;;48.33;6.47;;;8.90;99.90;;;;;;6161531;23;20021;-82
2022/12/24 09:12:36;;;;;;;55.22;7.75;;;8.90;99.90;;;;;;6160913;23;20055;-83
2022/12/24 09:15:06;;;;;;;66.50;8.48;;;8.90;99.90;;;;;;6187816;23;20013;-83
2022/12/24 09:17:33;;;;;;;47.97;6.95;;;8.90;99.90;;;;;;6187441;23;20041;-86
2022/12/24 09:19:59;;;;;;;44.95;6.47;;;8.90;99.90;;;;;;6186874;23;20505;-83
2022/12/24 09:22:25;;;;;;;36.90;6.82;;;8.90;99.90;;;;;;6186734;23;20044;-85
2022/12/24 09:24:53;;;;;;;37.33;4.50;;;8.90;99.90;;;;;;6160748;23;20085;-84
2022/12/24 09:27:19;;;;;;;42.00;5.47;;;8.80;99.90;;;;;;6160782;23;20079;-84
2022/12/24 09:29:44;;;;;;;38.00;4.93;;;8.80;99.90;;;;;;6160314;23;20028;-82
2022/12/24 09:32:10;;;;;;;40.80;5.15;;;8.70;99.90;;;;;;6135533;23;20172;-84
2022/12/24 09:34:36;;;;;;;36.55;5.53;;;8.70;99.90;;;;;;6186181;23;20089;-83
2022/12/24 09:37:02;;;;;;;52.58;6.90;;;8.80;99.90;;;;;;6159188;23;20088;-83
2022/12/24 09:39:28;;;;;;;53.95;8.05;;;8.80;99.90;;;;;;6136174;23;20355;-85
2022/12/24 09:41:59;;;;;;;42.97;6.03;;;8.70;99.90;;;;;;6187690;23;20017;-85
2022/12/24 09:44:29;;;;;;;41.90;6.63;;;8.80;99.90;;;;;;6160788;23;20415;-84
2022/12/24 09:46:58;;;;;;;44.35;7.43;;;8.80;99.90;;;;;;6161592;23;20010;-84
2022/12/24 09:49:31;;;;;;;52.88;6.13;;;8.80;99.90;;;;;;6187443;23;20013;-82
2022/12/24 09:52:05;;;;;;;52.85;6.35;;;8.80;99.90;;;;;;6160576;23;20098;-85
2022/12/24 09:54:44;;;;;;;53.67;6.20;;;8.90;99.90;;;;;;6160956;23;20488;-84
2022/12/24 09:57:27;;;;;;;45.60;6.32;;;8.90;99.90;;;;;;6161087;23;20024;-83
2022/12/24 09:59:54;;;;;;;52.35;6.38;;;8.90;99.90;;;;;;6135634;23;20024;-83
2022/12/24 10:02:20;;;;;;;50.33;7.28;;;9.00;99.90;;;;;;6160540;23;20013;-84
2022/12/24 10:04:47;;;;;;;51.80;6.95;;;8.90;99.90;;;;;;6160401;23;20020;-83
2022/12/24 10:07:28;;;;;;;50.60;7.15;;;9.00;99.90;;;;;;6186595;23;20462;-84
2022/12/24 10:10:37;;;;;;;47.55;6.65;;;9.00;99.90;;;;;;6187853;23;20346;-82
2022/12/24 10:13:28;;;;;;;50.38;6.75;;;9.00;99.90;;;;;;6187780;23;20099;-83
2022/12/24 10:16:29;;;;;;;51.83;7.80;;;9.00;99.90;;;;;;6137792;23;20032;-85
2022/12/24 10:19:09;;;;;;;45.20;8.30;;;8.90;99.90;;;;;;6108633;23;20025;-84
2022/12/24 10:21:52;;;;;;;46.83;7.22;;;8.90;99.90;;;;;;6189343;23;20055;-86
2022/12/24 10:24:38;;;;;;;42.40;5.05;;;8.90;99.90;;;;;;6164366;23;20443;-84
2022/12/24 10:27:14;;;;;;;53.20;8.15;;;8.90;99.90;;;;;;6190105;23;20013;-83
2022/12/24 10:29:45;;;;;;;44.22;6.03;;;9.00;99.90;;;;;;6138079;23;20013;-84
2022/12/24 10:32:25;;;;;;;39.38;7.25;;;8.90;99.90;;;;;;6162195;23;20013;-81
2022/12/24 10:34:59;;;;;;;44.88;5.22;;;8.90;99.90;;;;;;6188996;23;20032;-82
2022/12/24 10:37:27;;;;;;;49.72;7.60;;;8.90;99.90;;;;;;6162481;23;20013;-82
2022/12/24 10:39:57;;;;;;;46.50;7.22;;;8.90;99.90;;;;;;6162477;23;20234;-82
2022/12/24 10:42:37;;;;;;;53.38;7.43;;;8.90;99.90;;;;;;6161971;23;20068;-82
2022/12/24 10:45:05;;;;;;;62.25;14.15;;;9.00;99.90;;;;;;6137342;23;20035;-81
2022/12/24 10:47:36;;;;;;;47.70;11.70;;;9.00;99.90;;;;;;6162138;23;20015;-81
2022/12/24 10:50:15;;;;;;;48.28;11.43;;;9.00;99.90;;;;;;6162220;23;20017;-83
2022/12/24 10:52:46;;;;;;;40.22;5.07;;;9.00;99.90;;;;;;6189191;23;20020;-87
2022/12/24 10:55:17;;;;;;;39.20;5.20;;;9.10;99.90;;;;;;6190592;23;20017;-88
2022/12/24 10:57:46;;;;;;;48.80;5.32;;;9.10;99.90;;;;;;6139863;23;20024;-84
2022/12/24 11:00:19;;;;;;;53.20;7.05;;;9.10;99.90;;;;;;6164245;23;20009;-86
2022/12/24 11:02:47;;;;;;;47.67;6.65;;;9.10;99.90;;;;;;6163804;23;20017;-85
2022/12/24 11:05:31;;;;;;;49.03;6.78;;;9.10;99.90;;;;;;6163890;23;20009;-88
2022/12/24 11:08:13;;;;;;;56.70;6.85;;;9.10;99.90;;;;;;6165153;23;20013;-85
2022/12/24 11:10:43;;;;;;;53.70;6.00;;;9.10;99.90;;;;;;6189967;23;20447;-87
2022/12/24 11:13:25;;;;;;;49.20;7.13;;;9.10;99.90;;;;;;6163497;23;20342;-88
2022/12/24 11:16:01;;;;;;;45.17;5.70;;;9.10;99.90;;;;;;6190291;23;20016;-85
2022/12/24 11:18:27;;;;;;;50.63;6.90;;;9.10;99.90;;;;;;6164357;23;20014;-85
2022/12/24 11:20:53;;;;;;;45.50;6.13;;;9.10;99.90;;;;;;6164169;23;20515;-83
2022/12/24 11:23:19;;;;;;;39.78;5.70;;;9.20;99.90;;;;;;6190260;23;20051;-84
2022/12/24 11:25:50;;;;;;;37.55;5.30;;;9.10;99.90;;;;;;6164069;23;20013;-87
2022/12/24 11:28:22;;;;;;;44.08;7.05;;;9.10;99.90;;;;;;6163792;23;20021;-86
2022/12/24 11:30:58;;;;;;;35.53;5.15;;;9.20;99.90;;;;;;6163511;23;20347;-83
2022/12/24 11:33:24;;;;;;;;;;;9.20;99.90;;;;;;6189846;23;20040;-84
2022/12/24 11:35:55;;;;;;;;;;;9.20;99.90;;;;;;6162960;23;20308;-85
2022/12/24 11:38:26;;;;;;;40.30;6.00;;;9.20;99.90;;;;;;6162039;23;19916;-87
2022/12/24 11:41:02;;;;;;;43.38;4.75;;;9.20;99.90;;;;;;6161942;23;20454;-84
2022/12/24 11:43:43;;;;;;;42.50;5.32;;;9.20;99.90;;;;;;6162784;23;20375;-86
2022/12/24 11:46:17;;;;;;;34.30;4.72;;;9.20;99.90;;;;;;6162408;23;20013;-84
2022/12/24 11:48:43;;;;;;;49.50;5.82;;;9.20;99.90;;;;;;6189769;23;20020;-87
2022/12/24 11:51:24;;;;;;;39.38;6.30;;;9.20;99.90;;;;;;6162528;23;20020;-85
2022/12/24 11:54:25;;;;;;;37.28;5.07;;;9.20;99.90;;;;;;6189256;23;20013;-86
2022/12/24 11:56:57;;;;;;;31.95;4.30;;;9.20;99.90;;;;;;6137877;23;20020;-86
2022/12/24 11:59:30;;;;;;;35.78;4.60;;;9.20;99.90;;;;;;6137448;23;20474;-85
2022/12/24 12:01:59;;;;;;;33.67;4.25;;;9.20;99.90;;;;;;6161862;23;20031;-87
2022/12/24 12:04:31;;;;;;;39.58;5.95;;;9.20;99.90;;;;;;6137152;23;20428;-85
2022/12/24 12:07:14;;;;;;;32.40;5.72;;;9.20;99.90;;;;;;6188454;23;20020;-84
2022/12/24 12:09:41;;;;;;;37.03;5.97;;;9.20;99.90;;;;;;6188383;23;20061;-84
2022/12/24 12:12:17;;;;;;;31.45;4.30;;;9.20;99.90;;;;;;6188923;23;20012;-86
2022/12/24 12:14:49;;;;;;;29.83;4.28;;;9.20;99.90;;;;;;6188838;23;20056;-84
2022/12/24 12:17:42;;;;;;;34.00;3.80;;;9.20;99.90;;;;;;6162622;23;20020;-84
2022/12/24 12:20:25;;;;;;;26.30;4.25;;;9.30;99.90;;;;;;6163008;23;20091;-85
2022/12/24 12:23:14;;;;;;;25.65;4.47;;;9.30;99.90;;;;;;6189894;23;20063;-86
2022/12/24 12:25:50;;;;;;;28.52;4.50;;;9.30;99.90;;;;;;6162368;23;20092;-86
2022/12/24 12:28:34;;;;;;;41.88;5.32;;;9.30;99.90;;;;;;6189279;23;20450;-84
2022/12/24 12:31:08;;;;;;;29.33;4.45;;;9.30;99.90;;;;;;6188781;23;20446;-90
2022/12/24 12:33:47;;;;;;;27.27;3.37;;;9.30;99.90;;;;;;6139482;23;20024;-87
2022/12/24 12:36:18;;;;;;;39.30;5.78;;;9.40;99.90;;;;;;6163681;23;20013;-86
2022/12/24 12:38:44;;;;;;;30.10;4.40;;;9.40;99.90;;;;;;6162999;23;20027;-85
2022/12/24 12:41:12;;;;;;;29.63;5.68;;;9.40;99.90;;;;;;6138116;23;20447;-87
2022/12/24 12:44:03;;;;;;;37.10;6.00;;;9.40;99.90;;;;;;6139255;23;20013;-88
2022/12/24 12:46:44;;;;;;;30.95;4.28;;;9.40;99.90;;;;;;6167512;23;20013;-85
2022/12/24 12:49:31;;;;;;;40.53;4.90;;;9.40;99.90;;;;;;6175901;23;20024;-89
2022/12/24 12:52:00;;;;;;;33.67;4.43;;;9.50;99.90;;;;;;6155679;23;20375;-87
2022/12/24 12:54:31;;;;;;;31.75;6.28;;;9.50;99.90;;;;;;6183500;23;20001;-84
2022/12/24 12:57:04;;;;;;;32.92;4.85;;;9.60;99.90;;;;;;6175553;23;20013;-86
2022/12/24 12:59:33;;;;;;;26.65;5.18;;;9.60;99.90;;;;;;6163250;23;20017;-84
2022/12/24 13:02:29;;;;;;;38.70;5.18;;;9.60;99.90;;;;;;6198557;23;20028;-84
2022/12/24 13:05:33;;;;;;;29.30;4.75;;;9.70;99.90;;;;;;6166983;23;20159;-82
2022/12/24 13:08:23;;;;;;;33.30;4.97;;;9.60;99.90;;;;;;6138089;23;20013;-84
2022/12/24 13:11:16;;;;;;;32.25;5.43;;;9.60;99.90;;;;;;6136896;23;20343;-85
2022/12/24 13:14:21;;;;;;;35.10;4.75;;;9.70;99.90;;;;;;6186969;23;20013;-85
2022/12/24 13:17:25;;;;;;;30.10;4.18;;;9.70;99.90;;;;;;6160945;23;20013;-85
2022/12/24 13:20:08;;;;;;;28.50;4.22;;;9.60;99.90;;;;;;6161263;23;20017;-86
2022/12/24 13:22:34;;;;;;;25.55;4.18;;;9.60;99.90;;;;;;6136587;23;20435;-85
2022/12/24 13:25:00;;;;;;;32.33;4.35;;;9.60;99.90;;;;;;6188087;23;20040;-84
2022/12/24 13:27:31;;;;;;;34.78;4.80;;;9.60;99.90;;;;;;6187491;23;20017;-84
2022/12/24 13:30:20;;;;;;;33.47;4.72;;;9.60;99.90;;;;;;6187987;23;20017;-85
2022/12/24 13:32:51;;;;;;;36.47;5.43;;;9.50;99.90;;;;;;6187047;23;20013;-85
2022/12/24 13:35:20;;;;;;;31.65;6.47;;;9.50;99.90;;;;;;6186736;23;20481;-82
2022/12/24 13:37:47;;;;;;;31.23;5.18;;;9.50;99.90;;;;;;6188186;23;20477;-86
2022/12/24 13:40:15;;;;;;;31.02;4.20;;;9.50;99.90;;;;;;6158860;23;20498;-87
2022/12/24 13:42:47;;;;;;;30.05;4.18;;;9.50;99.90;;;;;;6160726;23;20013;-90
2022/12/24 13:45:38;;;;;;;24.77;4.85;;;9.50;99.90;;;;;;6139671;23;20013;-87
2022/12/24 13:48:06;;;;;;;23.83;3.08;;;9.40;99.90;;;;;;6160787;23;20032;-83
2022/12/24 13:50:50;;;;;;;26.50;3.50;;;9.40;99.90;;;;;;6137140;23;20148;-87
2022/12/24 13:53:24;;;;;;;25.08;3.92;;;9.50;99.90;;;;;;6162695;23;20013;-86
2022/12/24 13:55:54;;;;;;;24.87;3.77;;;9.40;99.90;;;;;;6162048;23;20013;-86
2022/12/24 13:58:22;;;;;;;24.33;4.13;;;9.40;99.90;;;;;;6162061;23;20040;-87
2022/12/24 14:01:12;;;;;;;21.10;4.10;;;9.40;99.90;;;;;;6161941;23;20055;-86
2022/12/24 14:03:54;;;;;;;20.20;3.92;;;9.40;99.90;;;;;;6188371;23;20010;-85
2022/12/24 14:06:27;;;;;;;32.38;3.95;;;9.30;99.90;;;;;;6161441;23;20017;-85
2022/12/24 14:08:56;;;;;;;22.95;3.78;;;9.30;99.90;;;;;;6136228;23;20327;-87
2022/12/24 14:11:25;;;;;;;31.60;6.10;;;9.20;99.90;;;;;;6159408;23;20052;-86
2022/12/24 14:14:04;;;;;;;52.30;14.68;;;9.30;99.90;;;;;;6161889;23;20045;-86
2022/12/24 14:16:40;;;;;;;31.40;5.82;;;9.20;99.90;;;;;;6137635;23;20017;-86
2022/12/24 14:19:20;;;;;;;26.83;4.40;;;9.20;99.90;;;;;;6188278;23;20009;-87
2022/12/24 14:22:03;;;;;;;23.73;4.65;;;9.20;99.90;;;;;;6162078;23;20017;-86
2022/12/24 14:24:40;;;;;;;27.23;4.85;;;9.10;99.90;;;;;;6138353;23;20509;-86
2022/12/24 14:27:38;;;;;;;24.10;4.75;;;9.10;99.90;;;;;;6164377;23;20088;-88
2022/12/24 14:30:15;;;;;;;49.65;7.45;;;9.10;99.90;;;;;;6164741;23;20021;-83
2022/12/24 14:36:21;;;;;;;21.48;3.60;;;9.10;99.90;;;;;;6192326;23;20075;-88
2022/12/24 14:38:48;;;;;;;25.42;3.65;;;9.10;99.90;;;;;;6164475;23;20020;-85
2022/12/24 14:41:34;;;;;;;28.67;6.80;;;9.10;99.90;;;;;;6164580;23;20019;-88
2022/12/24 14:44:29;;;;;;;26.50;5.53;;;9.10;99.90;;;;;;6166398;23;20051;-86
2022/12/24 14:47:11;;;;;;;20.83;3.38;;;9.00;99.90;;;;;;6120348;23;20013;-81
2022/12/24 14:50:16;;;;;;;30.65;7.22;;;9.00;99.90;;;;;;6190926;23;20119;-88
2022/12/24 14:53:19;;;;;;;32.58;6.95;;;9.00;99.90;;;;;;6190665;23;20063;-84
2022/12/24 14:55:47;;;;;;;33.05;8.50;;;9.00;99.90;;;;;;6085036;23;20471;-86
2022/12/24 14:58:23;;;;;;;28.95;4.97;;;9.00;99.90;;;;;;6164269;23;20021;-85
2022/12/24 15:00:50;;;;;;;44.13;12.02;;;9.00;99.90;;;;;;6164489;23;20024;-84
2022/12/24 15:03:18;;;;;;;33.33;8.32;;;9.00;99.90;;;;;;6165967;23;20379;-85
2022/12/24 15:05:49;;;;;;;24.75;3.55;;;9.00;99.90;;;;;;6140503;23;20016;-89
2022/12/24 15:08:18;;;;;;;25.58;4.07;;;8.90;99.90;;;;;;6141499;23;20387;-85
2022/12/24 15:10:51;;;;;;;26.70;3.92;;;9.00;99.90;;;;;;6164114;23;20020;-85
2022/12/24 15:13:33;;;;;;;19.67;3.25;;;8.90;99.90;;;;;;6164011;23;20071;-89
2022/12/24 15:16:01;;;;;;;24.75;3.75;;;8.90;99.90;;;;;;6164009;23;20060;-85
2022/12/24 15:18:30;;;;;;;23.73;2.97;;;8.90;99.90;;;;;;6191286;23;20088;-87
2022/12/24 15:21:00;;;;;;;27.60;4.28;;;8.90;99.90;;;;;;6142410;23;20036;-90
2022/12/24 15:23:36;;;;;;;24.85;4.35;;;8.90;99.90;;;;;;6164217;23;20093;-87
2022/12/24 15:26:20;;;;;;;26.63;4.05;;;8.90;99.90;;;;;;6164998;23;20040;-86
2022/12/24 15:28:46;;;;;;;26.33;3.45;;;8.90;99.90;;;;;;6190943;23;20036;-88
2022/12/24 15:31:18;;;;;;;21.58;3.67;;;8.90;99.90;;;;;;6163804;23;20027;-88
2022/12/24 15:33:45;;;;;;;26.30;3.88;;;8.90;99.90;;;;;;6189963;23;20013;-82
2022/12/24 15:36:14;;;;;;;33.85;4.40;;;8.90;99.90;;;;;;6191089;23;20049;-89
2022/12/24 15:38:45;;;;;;;31.15;3.70;;;8.90;99.90;;;;;;6142068;23;20375;-87
2022/12/24 15:41:25;;;;;;;26.65;4.70;;;8.80;99.90;;;;;;6164577;23;20088;-88
2022/12/24 15:43:53;;;;;;;22.83;3.95;;;8.90;99.90;;;;;;6139355;23;20048;-85
2022/12/24 15:46:23;;;;;;;26.58;4.80;;;8.80;99.90;;;;;;6163452;23;20020;-87
2022/12/24 15:48:50;;;;;;;26.92;4.53;;;8.80;99.90;;;;;;6162916;23;20020;-85
2022/12/24 15:51:33;;;;;;;33.10;5.43;;;8.80;99.90;;;;;;6164068;23;20045;-89
2022/12/24 15:54:04;;;;;;;32.70;5.05;;;8.70;99.90;;;;;;6164215;23;20013;-88
2022/12/24 15:56:33;;;;;;;31.10;4.15;;;8.70;99.90;;;;;;6139389;23;20079;-87
2022/12/24 15:59:14;;;;;;;26.40;4.75;;;8.60;99.90;;;;;;6162429;23;20501;-81
2022/12/24 16:01:42;;;;;;;35.22;6.22;;;8.60;99.90;;;;;;6188907;23;20013;-84
2022/12/24 16:04:19;;;;;;;28.42;5.72;;;8.50;99.90;;;;;;6161838;23;20017;-89
2022/12/24 16:06:56;;;;;;;32.20;4.97;;;8.40;99.90;;;;;;6163046;23;20458;-88
2022/12/24 16:09:31;;;;;;;31.63;4.70;;;8.40;99.90;;;;;;6164332;23;20023;-85
2022/12/24 16:11:58;;;;;;;32.45;4.78;;;8.30;99.90;;;;;;6163332;23;20371;-88
2022/12/24 16:14:23;;;;;;;37.53;5.00;;;8.30;99.90;;;;;;6163144;23;20398;-86
2022/12/24 16:16:55;;;;;;;39.53;6.53;;;8.20;99.90;;;;;;6190413;23;20009;-88
2022/12/24 16:19:29;;;;;;;30.17;4.60;;;8.20;99.90;;;;;;6165291;23;20017;-88
2022/12/24 16:22:30;;;;;;;34.67;4.30;;;8.20;99.90;;;;;;6163776;23;20016;-88
2022/12/24 16:24:46;;;;;;;34.08;5.38;;;8.10;99.90;;;;;;6190477;23;20021;-88
2022/12/24 16:27:12;;;;;;;36.38;4.65;;;8.10;99.90;;;;;;6139312;23;20013;-87
2022/12/24 16:29:39;;;;;;;38.42;5.85;;;8.00;99.90;;;;;;6189180;23;20016;-88
2022/12/24 16:32:05;;;;;;;28.00;3.88;;;8.00;99.90;;;;;;6162889;23;20024;-89
2022/12/24 16:34:31;;;;;;;32.25;5.40;;;7.90;99.90;;;;;;6162725;23;20016;-86
2022/12/24 16:36:58;;;;;;;34.42;5.72;;;7.90;99.90;;;;;;6163822;23;20100;-90
2022/12/24 16:39:30;;;;;;;31.83;4.93;;;7.90;99.90;;;;;;6139707;23;20043;-90
2022/12/24 16:44:43;;;;;;;32.65;5.32;;;7.80;99.90;;;;;;6166003;23;20027;-90
2022/12/24 16:47:13;;;;;;;23.77;4.53;;;7.70;99.90;;;;;;6166713;23;20013;-87
2022/12/24 16:49:39;;;;;;;37.03;5.65;;;7.70;99.90;;;;;;6140625;23;20443;-90
2022/12/24 16:52:20;;;;;;;41.92;5.15;;;7.70;99.90;;;;;;6166178;23;20063;-89
2022/12/24 16:54:50;;;;;;;39.05;6.10;;;7.60;99.90;;;;;;6140831;23;20017;-89
2022/12/24 16:57:16;;;;;;;30.15;5.88;;;7.60;99.90;;;;;;6168680;23;20044;-88
2022/12/24 16:59:42;;;;;;;33.28;5.07;;;7.60;99.90;;;;;;6144910;23;20069;-89
2022/12/24 17:02:12;;;;;;;31.55;4.88;;;7.50;99.90;;;;;;6168810;23;20020;-91
2022/12/24 17:04:38;;;;;;;50.75;8.15;;;7.50;99.90;;;;;;6192602;23;20089;-87
2022/12/24 17:07:04;;;;;;;35.05;5.63;;;7.50;99.90;;;;;;6143137;23;20059;-87
2022/12/24 17:09:30;;;;;;;37.63;5.70;;;7.50;99.90;;;;;;6143402;23;20455;-88
2022/12/24 17:11:56;;;;;;;31.33;5.45;;;7.50;99.90;;;;;;6169672;23;20024;-88
2022/12/24 17:14:21;;;;;;;43.15;7.00;;;7.40;99.90;;;;;;6167196;23;20013;-88
2022/12/24 17:16:47;;;;;;;37.83;5.13;;;7.50;99.90;;;;;;6193514;23;20013;-87
2022/12/24 17:19:13;;;;;;;38.17;6.38;;;7.40;99.90;;;;;;6166200;23;20043;-87
2022/12/24 17:21:39;;;;;;;36.63;5.53;;;7.40;99.90;;;;;;6194764;23;20139;-85
2022/12/24 17:24:06;;;;;;;38.58;5.18;;;7.30;99.90;;;;;;6168815;23;20037;-90
2022/12/24 17:26:52;;;;;;;42.10;5.78;;;7.30;99.90;;;;;;6169218;23;20084;-89
2022/12/24 17:29:27;;;;;;;37.65;5.60;;;7.30;99.90;;;;;;6166122;23;20048;-89
2022/12/24 17:31:53;;;;;;;41.92;5.20;;;7.20;99.90;;;;;;6139035;23;20024;-89
2022/12/24 17:34:18;;;;;;;41.47;6.32;;;7.20;99.90;;;;;;6190057;23;20013;-90
2022/12/24 17:36:44;;;;;;;34.13;6.47;;;7.20;99.90;;;;;;6190500;23;20013;-87
2022/12/24 17:39:10;;;;;;;35.35;5.85;;;7.10;99.90;;;;;;6163585;23;20025;-89
2022/12/24 17:41:35;;;;;;;47.65;7.97;;;7.10;99.90;;;;;;6163282;23;20375;-88
2022/12/24 17:44:03;;;;;;;39.25;5.85;;;7.10;99.90;;;;;;6138936;23;20017;-86
2022/12/24 17:46:29;;;;;;;41.13;6.55;;;7.10;99.90;;;;;;6162817;23;20013;-88
2022/12/24 17:48:55;;;;;;;45.90;7.22;;;7.10;99.90;;;;;;6190634;23;20008;-90
2022/12/24 17:51:22;;;;;;;44.55;7.88;;;7.10;99.90;;;;;;6163460;23;20335;-89
2022/12/24 17:53:48;;;;;;;35.38;6.40;;;7.10;99.90;;;;;;6189936;23;20010;-89
2022/12/24 17:56:15;;;;;;;44.53;6.53;;;7.00;99.90;;;;;;6161897;23;20024;-88
2022/12/24 17:58:42;;;;;;;37.03;6.30;;;7.00;99.90;;;;;;6164115;23;20049;-89
2022/12/24 18:01:13;;;;;;;26.83;5.18;;;7.00;99.90;;;;;;6141418;23;20016;-88
2022/12/24 18:03:39;;;;;;;40.47;7.25;;;6.90;99.90;;;;;;6165878;23;20017;-89
2022/12/24 18:06:07;;;;;;;36.75;5.35;;;6.90;99.90;;;;;;6140322;23;20013;-86
2022/12/24 18:08:34;;;;;;;35.83;5.93;;;7.00;99.90;;;;;;6139931;23;20021;-86
2022/12/24 18:11:08;;;;;;;45.25;7.18;;;6.90;99.90;;;;;;6190732;23;20020;-88
2022/12/24 18:13:34;;;;;;;45.55;7.22;;;6.90;99.90;;;;;;6140132;23;20028;-87
2022/12/24 18:15:59;;;;;;;42.92;7.07;;;6.90;99.90;;;;;;6190497;23;20009;-89
2022/12/24 18:18:25;;;;;;;44.65;6.43;;;6.90;99.90;;;;;;6139720;23;20095;-89
2022/12/24 18:20:51;;;;;;;28.65;5.57;;;6.90;99.90;;;;;;6140354;23;20037;-89